Portada
METAR-TAF:

METAR-TAF

Aeroports :

Medina, Aràbia Saudita

latitud: 24-33N, longitud: 039-42E, altitud: 654 m

Observació

L'informe es va fer fa 49 minuts, a les 20:00 UTC
Vent 7 kt del Oest/Sud-Oest
Temperatura 37°C
Humitat 16%
Pressió 1012 hPa
Visibilitat 10 km o més
sense núvols per sota de 1500 mi sense presència de cumulonimbus.

METAR: OEMA 282000Z 24007KT CAVOK 37/07 Q1012 NOSIG

Hora: 23:49 (20:49 UTC)

Pronòstic

L'informe es va fer fa 3 hores i 49 minuts, a les 17:00 UTC
Pronòstic vàlid del 28 a les 18 UTC al 29 a les 24 UTC
Vent 6 kt del Oest
Visibilitat 10 km o més
Escasses núvols a una alçada de 4000 ft
Evolucionant progressivament
l' 28 a les 22 UTC al 29 a les 00 UTC
Vent 3 kt amb direcció variable
Visibilitat 10 km o més
sense núvols per sota de 1500 mi sense presència de cumulonimbus.
Evolucionant progressivament
l' 29 a les 06 UTC al 29 a les 08 UTC
Vent 9 kt del Oest/Nord-Oest

TAF: OEMA 281700Z 2818/2924 27006KT 9999 FEW040 BECMG 2822/2900 VRB03KT CAVOK BECMG 2906/2908 30009KT

Observacions i pronòstics meteorològics de més de 4000 aeroports (METAR i TAF).

Les estacions disponibles són els punts grocs i vermells al mapa.

Posi el ratolí al punt desitjat per veure el nom de l'estació.

Feu clic per veure les observacions i els pronòstics meteorològics.

Per canviar el mapa: feu clic els botons verds amb una creu de color negre per apropar; al botó verd amb un guió per allunyar la imatge; o en les fletxes verdes per a mapes adjacents.


METAR-TAF: